sensor_id;sensor_type;location;lat;lon;timestamp;P1;durP1;ratioP1;P2;durP2;ratioP2
22652;SDS011;11493;43.344;26.226;2023-07-20T00:02:05;22.65;;;5.57;;
22652;SDS011;11493;43.344;26.226;2023-07-20T00:04:34;46.75;;;7.35;;
22652;SDS011;11493;43.344;26.226;2023-07-20T00:07:01;26.27;;;6.63;;
22652;SDS011;11493;43.344;26.226;2023-07-20T00:09:28;28.35;;;6.10;;
22652;SDS011;11493;43.344;26.226;2023-07-20T00:11:55;29.27;;;5.80;;
22652;SDS011;11493;43.344;26.226;2023-07-20T00:14:22;25.98;;;5.22;;
22652;SDS011;11493;43.344;26.226;2023-07-20T00:16:50;41.35;;;6.53;;
22652;SDS011;11493;43.344;26.226;2023-07-20T00:19:23;48.63;;;6.53;;
22652;SDS011;11493;43.344;26.226;2023-07-20T00:21:51;48.80;;;6.30;;
22652;SDS011;11493;43.344;26.226;2023-07-20T00:24:19;42.42;;;5.82;;
22652;SDS011;11493;43.344;26.226;2023-07-20T00:26:46;45.13;;;6.03;;
22652;SDS011;11493;43.344;26.226;2023-07-20T00:29:14;62.15;;;7.22;;
22652;SDS011;11493;43.344;26.226;2023-07-20T00:31:41;53.47;;;5.95;;
22652;SDS011;11493;43.344;26.226;2023-07-20T00:34:10;50.83;;;5.57;;
22652;SDS011;11493;43.344;26.226;2023-07-20T00:36:39;43.65;;;6.50;;
22652;SDS011;11493;43.344;26.226;2023-07-20T00:39:06;56.50;;;6.07;;
22652;SDS011;11493;43.344;26.226;2023-07-20T00:41:33;43.95;;;5.75;;
22652;SDS011;11493;43.344;26.226;2023-07-20T00:44:01;42.55;;;5.47;;
22652;SDS011;11493;43.344;26.226;2023-07-20T00:46:28;60.80;;;6.00;;
22652;SDS011;11493;43.344;26.226;2023-07-20T00:48:56;54.60;;;5.93;;
22652;SDS011;11493;43.344;26.226;2023-07-20T00:51:23;38.35;;;4.93;;
22652;SDS011;11493;43.344;26.226;2023-07-20T00:53:52;37.47;;;5.43;;
22652;SDS011;11493;43.344;26.226;2023-07-20T00:56:20;21.02;;;4.45;;
22652;SDS011;11493;43.344;26.226;2023-07-20T00:58:49;15.70;;;2.78;;
22652;SDS011;11493;43.344;26.226;2023-07-20T01:01:17;16.33;;;3.00;;
22652;SDS011;11493;43.344;26.226;2023-07-20T01:03:46;13.15;;;2.65;;
22652;SDS011;11493;43.344;26.226;2023-07-20T01:06:29;20.48;;;2.50;;
22652;SDS011;11493;43.344;26.226;2023-07-20T01:09:17;13.77;;;2.58;;
22652;SDS011;11493;43.344;26.226;2023-07-20T01:11:54;16.25;;;3.38;;
22652;SDS011;11493;43.344;26.226;2023-07-20T01:16:59;21.13;;;3.03;;
22652;SDS011;11493;43.344;26.226;2023-07-20T01:19:26;11.50;;;3.35;;
22652;SDS011;11493;43.344;26.226;2023-07-20T01:30:46;11.65;;;2.20;;
22652;SDS011;11493;43.344;26.226;2023-07-20T01:33:22;8.77;;;2.08;;
22652;SDS011;11493;43.344;26.226;2023-07-20T01:35:54;7.57;;;2.20;;
22652;SDS011;11493;43.344;26.226;2023-07-20T01:38:27;17.92;;;2.10;;
22652;SDS011;11493;43.344;26.226;2023-07-20T01:40:55;14.25;;;1.80;;
22652;SDS011;11493;43.344;26.226;2023-07-20T01:43:23;13.38;;;2.10;;
22652;SDS011;11493;43.344;26.226;2023-07-20T01:45:51;10.77;;;2.03;;
22652;SDS011;11493;43.344;26.226;2023-07-20T01:48:18;11.85;;;1.90;;
22652;SDS011;11493;43.344;26.226;2023-07-20T01:50:45;25.02;;;22.17;;
22652;SDS011;11493;43.344;26.226;2023-07-20T01:53:12;25.23;;;15.20;;
22652;SDS011;11493;43.344;26.226;2023-07-20T01:55:39;39.20;;;32.53;;
22652;SDS011;11493;43.344;26.226;2023-07-20T01:58:07;21.85;;;16.85;;
22652;SDS011;11493;43.344;26.226;2023-07-20T02:00:34;16.83;;;2.72;;
22652;SDS011;11493;43.344;26.226;2023-07-20T02:03:03;6.65;;;2.60;;
22652;SDS011;11493;43.344;26.226;2023-07-20T02:05:30;8.52;;;2.25;;
22652;SDS011;11493;43.344;26.226;2023-07-20T02:07:57;8.85;;;2.55;;
22652;SDS011;11493;43.344;26.226;2023-07-20T02:10:24;16.13;;;2.00;;
22652;SDS011;11493;43.344;26.226;2023-07-20T02:12:52;11.80;;;2.50;;
22652;SDS011;11493;43.344;26.226;2023-07-20T02:15:19;10.23;;;2.30;;
22652;SDS011;11493;43.344;26.226;2023-07-20T02:17:47;14.02;;;3.90;;
22652;SDS011;11493;43.344;26.226;2023-07-20T02:20:14;17.60;;;6.55;;
22652;SDS011;11493;43.344;26.226;2023-07-20T02:22:41;13.90;;;5.50;;
22652;SDS011;11493;43.344;26.226;2023-07-20T02:25:08;11.18;;;3.25;;
22652;SDS011;11493;43.344;26.226;2023-07-20T02:27:36;7.32;;;2.55;;
22652;SDS011;11493;43.344;26.226;2023-07-20T02:30:04;8.52;;;2.20;;
22652;SDS011;11493;43.344;26.226;2023-07-20T02:32:33;7.65;;;2.03;;
22652;SDS011;11493;43.344;26.226;2023-07-20T02:35:02;6.13;;;1.70;;
22652;SDS011;11493;43.344;26.226;2023-07-20T02:37:30;12.20;;;1.95;;
22652;SDS011;11493;43.344;26.226;2023-07-20T02:40:00;6.80;;;2.35;;
22652;SDS011;11493;43.344;26.226;2023-07-20T02:42:28;10.57;;;1.95;;
22652;SDS011;11493;43.344;26.226;2023-07-20T02:44:55;9.32;;;2.08;;
22652;SDS011;11493;43.344;26.226;2023-07-20T02:47:22;7.07;;;1.90;;
22652;SDS011;11493;43.344;26.226;2023-07-20T02:49:49;13.68;;;1.85;;
22652;SDS011;11493;43.344;26.226;2023-07-20T02:52:16;8.77;;;1.90;;
22652;SDS011;11493;43.344;26.226;2023-07-20T02:54:47;9.95;;;1.77;;
22652;SDS011;11493;43.344;26.226;2023-07-20T02:57:14;5.90;;;1.77;;
22652;SDS011;11493;43.344;26.226;2023-07-20T02:59:41;10.15;;;1.83;;
22652;SDS011;11493;43.344;26.226;2023-07-20T03:02:08;7.15;;;2.40;;
22652;SDS011;11493;43.344;26.226;2023-07-20T03:04:38;10.63;;;1.50;;
22652;SDS011;11493;43.344;26.226;2023-07-20T03:07:05;12.80;;;2.20;;
22652;SDS011;11493;43.344;26.226;2023-07-20T03:09:33;13.75;;;2.33;;
22652;SDS011;11493;43.344;26.226;2023-07-20T03:12:00;9.90;;;2.00;;
22652;SDS011;11493;43.344;26.226;2023-07-20T03:14:28;7.82;;;2.28;;
22652;SDS011;11493;43.344;26.226;2023-07-20T03:16:57;9.00;;;2.35;;
22652;SDS011;11493;43.344;26.226;2023-07-20T03:19:29;11.70;;;2.53;;
22652;SDS011;11493;43.344;26.226;2023-07-20T03:21:57;10.52;;;2.17;;
22652;SDS011;11493;43.344;26.226;2023-07-20T03:24:25;8.63;;;1.98;;
22652;SDS011;11493;43.344;26.226;2023-07-20T03:26:53;11.30;;;2.00;;
22652;SDS011;11493;43.344;26.226;2023-07-20T03:29:20;9.95;;;2.45;;
22652;SDS011;11493;43.344;26.226;2023-07-20T03:31:47;9.00;;;1.80;;
22652;SDS011;11493;43.344;26.226;2023-07-20T03:34:15;13.27;;;2.38;;
22652;SDS011;11493;43.344;26.226;2023-07-20T03:36:43;10.90;;;2.45;;
22652;SDS011;11493;43.344;26.226;2023-07-20T03:39:11;9.35;;;1.90;;
22652;SDS011;11493;43.344;26.226;2023-07-20T03:41:39;12.77;;;1.85;;
22652;SDS011;11493;43.344;26.226;2023-07-20T03:44:10;9.82;;;1.77;;
22652;SDS011;11493;43.344;26.226;2023-07-20T03:46:37;5.97;;;1.52;;
22652;SDS011;11493;43.344;26.226;2023-07-20T03:49:04;15.77;;;1.70;;
22652;SDS011;11493;43.344;26.226;2023-07-20T03:51:32;5.93;;;1.60;;
22652;SDS011;11493;43.344;26.226;2023-07-20T03:54:00;8.68;;;1.80;;
22652;SDS011;11493;43.344;26.226;2023-07-20T03:56:27;12.50;;;1.65;;
22652;SDS011;11493;43.344;26.226;2023-07-20T03:58:54;10.15;;;2.83;;
22652;SDS011;11493;43.344;26.226;2023-07-20T04:01:22;8.65;;;1.50;;
22652;SDS011;11493;43.344;26.226;2023-07-20T04:03:49;6.10;;;2.00;;
22652;SDS011;11493;43.344;26.226;2023-07-20T04:06:19;8.90;;;1.83;;
22652;SDS011;11493;43.344;26.226;2023-07-20T04:08:47;5.65;;;1.33;;
22652;SDS011;11493;43.344;26.226;2023-07-20T04:11:14;9.13;;;1.83;;
22652;SDS011;11493;43.344;26.226;2023-07-20T04:13:42;13.32;;;1.50;;
22652;SDS011;11493;43.344;26.226;2023-07-20T04:16:09;14.57;;;2.30;;
22652;SDS011;11493;43.344;26.226;2023-07-20T04:18:36;8.48;;;1.83;;
22652;SDS011;11493;43.344;26.226;2023-07-20T04:21:03;8.95;;;1.70;;
22652;SDS011;11493;43.344;26.226;2023-07-20T04:23:31;8.27;;;2.28;;
22652;SDS011;11493;43.344;26.226;2023-07-20T04:26:00;8.50;;;2.10;;
22652;SDS011;11493;43.344;26.226;2023-07-20T04:28:28;9.90;;;1.60;;
22652;SDS011;11493;43.344;26.226;2023-07-20T04:31:08;4.47;;;1.30;;
22652;SDS011;11493;43.344;26.226;2023-07-20T04:33:36;9.18;;;1.90;;
22652;SDS011;11493;43.344;26.226;2023-07-20T04:36:04;9.93;;;2.10;;
22652;SDS011;11493;43.344;26.226;2023-07-20T04:38:34;8.43;;;1.50;;
22652;SDS011;11493;43.344;26.226;2023-07-20T04:41:09;9.48;;;2.05;;
22652;SDS011;11493;43.344;26.226;2023-07-20T04:43:42;8.93;;;1.85;;
22652;SDS011;11493;43.344;26.226;2023-07-20T04:46:18;12.93;;;2.13;;
22652;SDS011;11493;43.344;26.226;2023-07-20T04:48:46;13.93;;;2.47;;
22652;SDS011;11493;43.344;26.226;2023-07-20T04:51:15;18.30;;;4.07;;
22652;SDS011;11493;43.344;26.226;2023-07-20T04:53:44;12.32;;;4.25;;
22652;SDS011;11493;43.344;26.226;2023-07-20T04:56:11;4.70;;;1.95;;
22652;SDS011;11493;43.344;26.226;2023-07-20T04:58:39;8.52;;;1.88;;
22652;SDS011;11493;43.344;26.226;2023-07-20T05:01:06;11.05;;;2.33;;
22652;SDS011;11493;43.344;26.226;2023-07-20T05:03:35;12.68;;;4.25;;
22652;SDS011;11493;43.344;26.226;2023-07-20T05:06:03;25.77;;;4.72;;
22652;SDS011;11493;43.344;26.226;2023-07-20T05:08:30;18.58;;;8.48;;
22652;SDS011;11493;43.344;26.226;2023-07-20T05:10:59;9.43;;;5.22;;
22652;SDS011;11493;43.344;26.226;2023-07-20T05:13:26;11.93;;;2.75;;
22652;SDS011;11493;43.344;26.226;2023-07-20T05:15:54;12.95;;;2.10;;
22652;SDS011;11493;43.344;26.226;2023-07-20T05:18:22;7.30;;;2.47;;
22652;SDS011;11493;43.344;26.226;2023-07-20T05:20:50;10.10;;;2.33;;
22652;SDS011;11493;43.344;26.226;2023-07-20T05:23:19;14.38;;;2.00;;
22652;SDS011;11493;43.344;26.226;2023-07-20T05:25:53;5.72;;;1.85;;
22652;SDS011;11493;43.344;26.226;2023-07-20T05:28:25;10.55;;;2.25;;
22652;SDS011;11493;43.344;26.226;2023-07-20T05:30:54;10.70;;;2.97;;
22652;SDS011;11493;43.344;26.226;2023-07-20T05:33:22;10.60;;;2.00;;
22652;SDS011;11493;43.344;26.226;2023-07-20T05:35:49;10.80;;;2.15;;
22652;SDS011;11493;43.344;26.226;2023-07-20T05:38:16;6.95;;;2.03;;
22652;SDS011;11493;43.344;26.226;2023-07-20T05:40:44;8.48;;;1.60;;
22652;SDS011;11493;43.344;26.226;2023-07-20T05:43:11;8.93;;;2.22;;
22652;SDS011;11493;43.344;26.226;2023-07-20T05:45:42;4.20;;;1.60;;
22652;SDS011;11493;43.344;26.226;2023-07-20T05:48:11;11.95;;;2.40;;
22652;SDS011;11493;43.344;26.226;2023-07-20T05:50:43;9.88;;;2.17;;
22652;SDS011;11493;43.344;26.226;2023-07-20T05:55:37;4.57;;;1.80;;
22652;SDS011;11493;43.344;26.226;2023-07-20T05:58:07;17.13;;;2.10;;
22652;SDS011;11493;43.344;26.226;2023-07-20T06:00:34;11.55;;;1.90;;
22652;SDS011;11493;43.344;26.226;2023-07-20T06:03:01;5.28;;;1.80;;
22652;SDS011;11493;43.344;26.226;2023-07-20T06:05:29;6.88;;;2.13;;
22652;SDS011;11493;43.344;26.226;2023-07-20T06:07:57;13.57;;;2.60;;
22652;SDS011;11493;43.344;26.226;2023-07-20T06:10:25;8.93;;;1.77;;
22652;SDS011;11493;43.344;26.226;2023-07-20T06:12:53;6.93;;;1.95;;
22652;SDS011;11493;43.344;26.226;2023-07-20T06:15:30;14.13;;;2.30;;
22652;SDS011;11493;43.344;26.226;2023-07-20T06:17:59;13.32;;;2.03;;
22652;SDS011;11493;43.344;26.226;2023-07-20T06:20:27;4.80;;;1.92;;
22652;SDS011;11493;43.344;26.226;2023-07-20T06:22:54;8.85;;;2.13;;
22652;SDS011;11493;43.344;26.226;2023-07-20T06:25:21;11.40;;;1.67;;
22652;SDS011;11493;43.344;26.226;2023-07-20T06:27:49;11.48;;;2.70;;
22652;SDS011;11493;43.344;26.226;2023-07-20T06:30:18;16.38;;;2.33;;
22652;SDS011;11493;43.344;26.226;2023-07-20T06:32:46;11.65;;;2.30;;
22652;SDS011;11493;43.344;26.226;2023-07-20T06:35:13;9.50;;;2.22;;
22652;SDS011;11493;43.344;26.226;2023-07-20T06:37:40;9.93;;;2.67;;
22652;SDS011;11493;43.344;26.226;2023-07-20T06:40:08;7.80;;;1.85;;
22652;SDS011;11493;43.344;26.226;2023-07-20T06:42:38;7.80;;;2.05;;
22652;SDS011;11493;43.344;26.226;2023-07-20T06:45:08;6.88;;;1.92;;
22652;SDS011;11493;43.344;26.226;2023-07-20T06:47:39;11.63;;;2.08;;
22652;SDS011;11493;43.344;26.226;2023-07-20T06:50:07;9.38;;;2.00;;
22652;SDS011;11493;43.344;26.226;2023-07-20T06:52:35;5.25;;;1.48;;
22652;SDS011;11493;43.344;26.226;2023-07-20T06:55:08;4.97;;;1.52;;
22652;SDS011;11493;43.344;26.226;2023-07-20T06:57:35;12.43;;;1.90;;
22652;SDS011;11493;43.344;26.226;2023-07-20T07:00:03;6.25;;;1.92;;
22652;SDS011;11493;43.344;26.226;2023-07-20T07:06:13;4.50;;;1.40;;
22652;SDS011;11493;43.344;26.226;2023-07-20T07:08:40;5.88;;;1.45;;
22652;SDS011;11493;43.344;26.226;2023-07-20T07:11:07;8.23;;;1.30;;
22652;SDS011;11493;43.344;26.226;2023-07-20T07:13:36;5.30;;;1.70;;
22652;SDS011;11493;43.344;26.226;2023-07-20T07:16:03;4.10;;;1.50;;
22652;SDS011;11493;43.344;26.226;2023-07-20T07:18:37;5.65;;;1.60;;
22652;SDS011;11493;43.344;26.226;2023-07-20T07:21:04;5.28;;;1.48;;
22652;SDS011;11493;43.344;26.226;2023-07-20T07:23:31;4.65;;;1.50;;
22652;SDS011;11493;43.344;26.226;2023-07-20T07:25:58;5.63;;;1.50;;
22652;SDS011;11493;43.344;26.226;2023-07-20T07:28:25;7.03;;;1.40;;
22652;SDS011;11493;43.344;26.226;2023-07-20T07:30:52;6.82;;;1.27;;
22652;SDS011;11493;43.344;26.226;2023-07-20T07:33:24;5.47;;;1.48;;
22652;SDS011;11493;43.344;26.226;2023-07-20T07:35:51;5.50;;;1.52;;
22652;SDS011;11493;43.344;26.226;2023-07-20T07:38:19;4.90;;;1.25;;
22652;SDS011;11493;43.344;26.226;2023-07-20T07:41:06;5.97;;;1.27;;
22652;SDS011;11493;43.344;26.226;2023-07-20T07:43:33;25.00;;;9.65;;
22652;SDS011;11493;43.344;26.226;2023-07-20T07:46:01;5.65;;;1.40;;
22652;SDS011;11493;43.344;26.226;2023-07-20T07:48:28;5.72;;;1.42;;
22652;SDS011;11493;43.344;26.226;2023-07-20T07:50:56;4.30;;;1.40;;
22652;SDS011;11493;43.344;26.226;2023-07-20T07:53:23;5.88;;;1.40;;
22652;SDS011;11493;43.344;26.226;2023-07-20T07:55:52;6.57;;;1.30;;
22652;SDS011;11493;43.344;26.226;2023-07-20T07:58:20;3.20;;;1.27;;
22652;SDS011;11493;43.344;26.226;2023-07-20T08:00:47;8.57;;;1.60;;
22652;SDS011;11493;43.344;26.226;2023-07-20T08:03:17;7.82;;;1.58;;
22652;SDS011;11493;43.344;26.226;2023-07-20T08:05:46;5.78;;;1.60;;
22652;SDS011;11493;43.344;26.226;2023-07-20T08:10:45;3.60;;;1.90;;
22652;SDS011;11493;43.344;26.226;2023-07-20T08:13:16;5.38;;;1.52;;
22652;SDS011;11493;43.344;26.226;2023-07-20T08:15:49;7.45;;;1.70;;
22652;SDS011;11493;43.344;26.226;2023-07-20T08:18:18;3.95;;;1.35;;
22652;SDS011;11493;43.344;26.226;2023-07-20T08:20:46;7.30;;;1.73;;
22652;SDS011;11493;43.344;26.226;2023-07-20T08:23:14;4.00;;;1.30;;
22652;SDS011;11493;43.344;26.226;2023-07-20T08:25:41;3.00;;;1.48;;
22652;SDS011;11493;43.344;26.226;2023-07-20T08:28:11;4.72;;;1.50;;
22652;SDS011;11493;43.344;26.226;2023-07-20T08:30:44;4.45;;;1.30;;
22652;SDS011;11493;43.344;26.226;2023-07-20T08:33:13;6.38;;;1.70;;
22652;SDS011;11493;43.344;26.226;2023-07-20T08:35:41;6.50;;;1.42;;
22652;SDS011;11493;43.344;26.226;2023-07-20T08:38:09;5.13;;;1.35;;
22652;SDS011;11493;43.344;26.226;2023-07-20T08:40:40;2.30;;;1.30;;
22652;SDS011;11493;43.344;26.226;2023-07-20T08:43:13;3.65;;;1.80;;
22652;SDS011;11493;43.344;26.226;2023-07-20T08:45:44;3.35;;;1.35;;
22652;SDS011;11493;43.344;26.226;2023-07-20T08:48:12;9.02;;;1.83;;
22652;SDS011;11493;43.344;26.226;2023-07-20T08:50:40;4.05;;;1.50;;
22652;SDS011;11493;43.344;26.226;2023-07-20T08:53:10;6.00;;;1.45;;
22652;SDS011;11493;43.344;26.226;2023-07-20T08:55:37;2.53;;;1.17;;
22652;SDS011;11493;43.344;26.226;2023-07-20T08:58:05;3.15;;;1.48;;
22652;SDS011;11493;43.344;26.226;2023-07-20T09:00:35;3.28;;;1.50;;
22652;SDS011;11493;43.344;26.226;2023-07-20T09:03:03;4.50;;;1.40;;
22652;SDS011;11493;43.344;26.226;2023-07-20T09:05:31;6.22;;;1.73;;
22652;SDS011;11493;43.344;26.226;2023-07-20T09:07:59;4.55;;;1.50;;
22652;SDS011;11493;43.344;26.226;2023-07-20T09:10:29;5.85;;;1.88;;
22652;SDS011;11493;43.344;26.226;2023-07-20T09:12:56;3.92;;;1.83;;
22652;SDS011;11493;43.344;26.226;2023-07-20T09:15:24;4.90;;;2.13;;
22652;SDS011;11493;43.344;26.226;2023-07-20T09:17:52;4.35;;;1.80;;
22652;SDS011;11493;43.344;26.226;2023-07-20T09:20:22;7.80;;;1.98;;
22652;SDS011;11493;43.344;26.226;2023-07-20T09:22:52;6.00;;;2.15;;
22652;SDS011;11493;43.344;26.226;2023-07-20T09:25:20;5.65;;;2.60;;
22652;SDS011;11493;43.344;26.226;2023-07-20T09:27:52;8.80;;;2.53;;
22652;SDS011;11493;43.344;26.226;2023-07-20T09:30:20;6.63;;;3.10;;
22652;SDS011;11493;43.344;26.226;2023-07-20T09:32:57;7.63;;;2.60;;
22652;SDS011;11493;43.344;26.226;2023-07-20T09:35:25;5.00;;;2.95;;
22652;SDS011;11493;43.344;26.226;2023-07-20T09:38:01;6.07;;;2.58;;
22652;SDS011;11493;43.344;26.226;2023-07-20T09:40:37;11.07;;;2.95;;
22652;SDS011;11493;43.344;26.226;2023-07-20T09:43:11;3.97;;;2.38;;
22652;SDS011;11493;43.344;26.226;2023-07-20T09:45:42;12.27;;;2.67;;
22652;SDS011;11493;43.344;26.226;2023-07-20T09:48:12;3.70;;;3.10;;
22652;SDS011;11493;43.344;26.226;2023-07-20T09:50:43;4.18;;;2.60;;
22652;SDS011;11493;43.344;26.226;2023-07-20T09:53:17;4.75;;;2.35;;
22652;SDS011;11493;43.344;26.226;2023-07-20T09:55:48;6.00;;;2.65;;
22652;SDS011;11493;43.344;26.226;2023-07-20T09:58:16;10.48;;;2.65;;
22652;SDS011;11493;43.344;26.226;2023-07-20T10:00:44;3.90;;;2.83;;
22652;SDS011;11493;43.344;26.226;2023-07-20T10:03:20;6.18;;;3.67;;
22652;SDS011;11493;43.344;26.226;2023-07-20T10:06:00;6.18;;;3.53;;
22652;SDS011;11493;43.344;26.226;2023-07-20T10:08:40;6.10;;;3.67;;
22652;SDS011;11493;43.344;26.226;2023-07-20T10:11:11;5.78;;;3.22;;
22652;SDS011;11493;43.344;26.226;2023-07-20T10:13:42;5.95;;;3.17;;
22652;SDS011;11493;43.344;26.226;2023-07-20T10:16:11;5.45;;;3.67;;
22652;SDS011;11493;43.344;26.226;2023-07-20T10:21:18;7.68;;;4.35;;
22652;SDS011;11493;43.344;26.226;2023-07-20T10:23:49;9.25;;;3.95;;
22652;SDS011;11493;43.344;26.226;2023-07-20T10:26:17;12.25;;;4.15;;
22652;SDS011;11493;43.344;26.226;2023-07-20T10:28:44;10.38;;;3.85;;
22652;SDS011;11493;43.344;26.226;2023-07-20T10:31:12;6.82;;;3.78;;
22652;SDS011;11493;43.344;26.226;2023-07-20T10:33:40;5.60;;;3.88;;
22652;SDS011;11493;43.344;26.226;2023-07-20T10:36:09;8.48;;;4.32;;
22652;SDS011;11493;43.344;26.226;2023-07-20T10:44:06;5.03;;;4.03;;
22652;SDS011;11493;43.344;26.226;2023-07-20T10:49:06;9.43;;;3.27;;
22652;SDS011;11493;43.344;26.226;2023-07-20T10:51:56;4.18;;;3.00;;
22652;SDS011;11493;43.344;26.226;2023-07-20T10:56:52;4.18;;;3.10;;
22652;SDS011;11493;43.344;26.226;2023-07-20T11:01:55;4.78;;;3.35;;
22652;SDS011;11493;43.344;26.226;2023-07-20T11:04:39;5.03;;;3.28;;
22652;SDS011;11493;43.344;26.226;2023-07-20T11:09:35;4.00;;;3.17;;
22652;SDS011;11493;43.344;26.226;2023-07-20T11:14:40;6.80;;;2.75;;
22652;SDS011;11493;43.344;26.226;2023-07-20T11:17:29;8.18;;;3.33;;
22652;SDS011;11493;43.344;26.226;2023-07-20T11:20:01;4.65;;;3.40;;
22652;SDS011;11493;43.344;26.226;2023-07-20T11:22:32;5.97;;;3.05;;
22652;SDS011;11493;43.344;26.226;2023-07-20T11:25:00;7.85;;;2.97;;
22652;SDS011;11493;43.344;26.226;2023-07-20T11:27:27;5.40;;;3.40;;
22652;SDS011;11493;43.344;26.226;2023-07-20T11:29:55;6.30;;;3.10;;
22652;SDS011;11493;43.344;26.226;2023-07-20T11:32:23;5.57;;;2.45;;
22652;SDS011;11493;43.344;26.226;2023-07-20T11:34:51;7.45;;;2.10;;
22652;SDS011;11493;43.344;26.226;2023-07-20T11:37:18;7.68;;;1.98;;
22652;SDS011;11493;43.344;26.226;2023-07-20T11:39:46;4.15;;;2.20;;
22652;SDS011;11493;43.344;26.226;2023-07-20T11:42:13;2.47;;;2.03;;
22652;SDS011;11493;43.344;26.226;2023-07-20T11:44:45;4.95;;;2.00;;
22652;SDS011;11493;43.344;26.226;2023-07-20T11:47:12;3.47;;;2.17;;
22652;SDS011;11493;43.344;26.226;2023-07-20T11:49:43;5.75;;;2.25;;
22652;SDS011;11493;43.344;26.226;2023-07-20T11:54:40;4.72;;;2.00;;
22652;SDS011;11493;43.344;26.226;2023-07-20T11:57:17;3.45;;;1.80;;
22652;SDS011;11493;43.344;26.226;2023-07-20T11:59:55;6.60;;;2.42;;
22652;SDS011;11493;43.344;26.226;2023-07-20T12:02:30;7.68;;;2.45;;
22652;SDS011;11493;43.344;26.226;2023-07-20T12:04:58;6.18;;;1.98;;
22652;SDS011;11493;43.344;26.226;2023-07-20T12:07:26;9.70;;;1.95;;
22652;SDS011;11493;43.344;26.226;2023-07-20T12:10:08;10.48;;;1.70;;
22652;SDS011;11493;43.344;26.226;2023-07-20T12:12:40;4.85;;;1.52;;
22652;SDS011;11493;43.344;26.226;2023-07-20T12:15:22;12.02;;;1.58;;
22652;SDS011;11493;43.344;26.226;2023-07-20T12:17:55;7.80;;;1.85;;
22652;SDS011;11493;43.344;26.226;2023-07-20T12:20:27;5.82;;;1.80;;
22652;SDS011;11493;43.344;26.226;2023-07-20T12:23:03;3.72;;;1.67;;
22652;SDS011;11493;43.344;26.226;2023-07-20T12:25:32;5.85;;;1.77;;
22652;SDS011;11493;43.344;26.226;2023-07-20T12:28:13;3.90;;;1.60;;
22652;SDS011;11493;43.344;26.226;2023-07-20T12:30:43;3.33;;;1.40;;
22652;SDS011;11493;43.344;26.226;2023-07-20T12:33:11;5.13;;;1.85;;
22652;SDS011;11493;43.344;26.226;2023-07-20T12:35:43;6.82;;;1.70;;
22652;SDS011;11493;43.344;26.226;2023-07-20T12:38:10;3.03;;;1.42;;
22652;SDS011;11493;43.344;26.226;2023-07-20T12:40:41;5.05;;;1.52;;
22652;SDS011;11493;43.344;26.226;2023-07-20T12:43:11;4.80;;;1.57;;
22652;SDS011;11493;43.344;26.226;2023-07-20T12:45:38;3.17;;;1.50;;
22652;SDS011;11493;43.344;26.226;2023-07-20T12:48:06;4.70;;;1.60;;
22652;SDS011;11493;43.344;26.226;2023-07-20T12:50:33;4.85;;;2.50;;
22652;SDS011;11493;43.344;26.226;2023-07-20T12:53:00;7.03;;;1.40;;
22652;SDS011;11493;43.344;26.226;2023-07-20T12:55:30;3.13;;;1.80;;
22652;SDS011;11493;43.344;26.226;2023-07-20T12:57:57;7.15;;;1.42;;
22652;SDS011;11493;43.344;26.226;2023-07-20T13:00:24;1.90;;;1.20;;
22652;SDS011;11493;43.344;26.226;2023-07-20T13:02:51;5.25;;;1.35;;
22652;SDS011;11493;43.344;26.226;2023-07-20T13:05:35;4.53;;;1.60;;
22652;SDS011;11493;43.344;26.226;2023-07-20T13:08:05;3.95;;;1.42;;
22652;SDS011;11493;43.344;26.226;2023-07-20T13:10:35;5.50;;;1.73;;
22652;SDS011;11493;43.344;26.226;2023-07-20T13:13:02;2.80;;;1.42;;
22652;SDS011;11493;43.344;26.226;2023-07-20T13:15:30;4.10;;;1.42;;
22652;SDS011;11493;43.344;26.226;2023-07-20T13:17:58;5.85;;;1.60;;
22652;SDS011;11493;43.344;26.226;2023-07-20T13:20:26;3.35;;;1.40;;
22652;SDS011;11493;43.344;26.226;2023-07-20T13:22:55;5.20;;;1.60;;
22652;SDS011;11493;43.344;26.226;2023-07-20T13:25:22;3.65;;;1.20;;
22652;SDS011;11493;43.344;26.226;2023-07-20T13:27:49;4.28;;;1.70;;
22652;SDS011;11493;43.344;26.226;2023-07-20T13:30:16;4.82;;;1.77;;
22652;SDS011;11493;43.344;26.226;2023-07-20T13:32:43;3.50;;;1.50;;
22652;SDS011;11493;43.344;26.226;2023-07-20T13:35:11;4.05;;;1.48;;
22652;SDS011;11493;43.344;26.226;2023-07-20T13:37:41;9.48;;;2.05;;
22652;SDS011;11493;43.344;26.226;2023-07-20T13:40:09;5.55;;;1.50;;
22652;SDS011;11493;43.344;26.226;2023-07-20T13:42:40;8.52;;;1.67;;
22652;SDS011;11493;43.344;26.226;2023-07-20T13:45:07;4.30;;;1.70;;
22652;SDS011;11493;43.344;26.226;2023-07-20T13:47:35;4.38;;;1.55;;
22652;SDS011;11493;43.344;26.226;2023-07-20T13:50:03;3.17;;;1.48;;
22652;SDS011;11493;43.344;26.226;2023-07-20T13:52:31;5.00;;;1.55;;
22652;SDS011;11493;43.344;26.226;2023-07-20T13:55:01;6.80;;;1.70;;
22652;SDS011;11493;43.344;26.226;2023-07-20T13:57:31;5.03;;;1.33;;
22652;SDS011;11493;43.344;26.226;2023-07-20T14:00:01;5.28;;;1.58;;
22652;SDS011;11493;43.344;26.226;2023-07-20T14:02:39;4.95;;;1.50;;
22652;SDS011;11493;43.344;26.226;2023-07-20T14:05:09;8.25;;;1.73;;
22652;SDS011;11493;43.344;26.226;2023-07-20T14:07:39;4.55;;;1.65;;
22652;SDS011;11493;43.344;26.226;2023-07-20T14:10:07;7.20;;;1.60;;
22652;SDS011;11493;43.344;26.226;2023-07-20T14:12:37;7.25;;;1.38;;
22652;SDS011;11493;43.344;26.226;2023-07-20T14:15:04;5.18;;;1.45;;
22652;SDS011;11493;43.344;26.226;2023-07-20T14:17:33;1.70;;;1.45;;
22652;SDS011;11493;43.344;26.226;2023-07-20T14:20:00;4.57;;;1.75;;
22652;SDS011;11493;43.344;26.226;2023-07-20T14:22:28;4.70;;;1.38;;
22652;SDS011;11493;43.344;26.226;2023-07-20T14:24:57;5.97;;;1.80;;
22652;SDS011;11493;43.344;26.226;2023-07-20T14:27:25;5.05;;;1.80;;
22652;SDS011;11493;43.344;26.226;2023-07-20T14:29:52;5.60;;;1.88;;
22652;SDS011;11493;43.344;26.226;2023-07-20T14:32:19;6.07;;;1.55;;
22652;SDS011;11493;43.344;26.226;2023-07-20T14:34:47;6.20;;;1.83;;
22652;SDS011;11493;43.344;26.226;2023-07-20T14:37:15;9.93;;;1.73;;
22652;SDS011;11493;43.344;26.226;2023-07-20T14:39:42;4.40;;;1.35;;
22652;SDS011;11493;43.344;26.226;2023-07-20T14:42:09;9.90;;;2.05;;
22652;SDS011;11493;43.344;26.226;2023-07-20T14:44:36;4.40;;;1.50;;
22652;SDS011;11493;43.344;26.226;2023-07-20T14:47:04;11.30;;;2.22;;
22652;SDS011;11493;43.344;26.226;2023-07-20T14:49:50;7.32;;;1.60;;
22652;SDS011;11493;43.344;26.226;2023-07-20T14:52:17;10.65;;;1.48;;
22652;SDS011;11493;43.344;26.226;2023-07-20T14:54:46;3.83;;;1.10;;
22652;SDS011;11493;43.344;26.226;2023-07-20T14:57:14;4.43;;;1.20;;
22652;SDS011;11493;43.344;26.226;2023-07-20T14:59:41;3.25;;;1.10;;
22652;SDS011;11493;43.344;26.226;2023-07-20T15:02:10;3.88;;;1.17;;
22652;SDS011;11493;43.344;26.226;2023-07-20T15:04:37;4.22;;;1.00;;
22652;SDS011;11493;43.344;26.226;2023-07-20T15:07:11;5.00;;;1.38;;
22652;SDS011;11493;43.344;26.226;2023-07-20T15:09:39;3.67;;;1.20;;
22652;SDS011;11493;43.344;26.226;2023-07-20T15:12:06;7.75;;;1.40;;
22652;SDS011;11493;43.344;26.226;2023-07-20T15:14:34;4.53;;;1.50;;
22652;SDS011;11493;43.344;26.226;2023-07-20T15:17:02;7.10;;;1.20;;
22652;SDS011;11493;43.344;26.226;2023-07-20T15:19:29;5.28;;;1.35;;
22652;SDS011;11493;43.344;26.226;2023-07-20T15:21:56;6.68;;;1.48;;
22652;SDS011;11493;43.344;26.226;2023-07-20T15:24:24;4.03;;;1.60;;
22652;SDS011;11493;43.344;26.226;2023-07-20T15:26:51;7.25;;;1.45;;